Flight Track Log - Related Links

Times and Time Zones

All times are in EDT time to prevent confusion due to time zone crossing. See the AWI3629 flight status page for this flight to view local times or setup timezone preferences in your user account.

Time Position Orientation Groundspeed Altitude Reporting Facility
EDT Latitude Longitude Course Direction KTS MPH feet Rate Location/Type
Wed 05:27:00 PM 44.6030 -69.0881 222° Southwest  Level FlightAware Approximate
Wed 05:27:46 PM 44.8058 -68.9961 226° Southwest 219 252 4,800  Level Boston Center
Wed 05:28:00 PM 44.5331 -69.1753 222° Southwest  Level FlightAware Approximate
Wed 05:28:47 PM 44.7475 -69.0639 220° Southwest 249 287 7,500  Level Boston Center
Wed 05:29:00 PM 44.4656 -69.2659 226° Southwest  Level FlightAware Approximate
Wed 05:29:49 PM 44.6869 -69.1347 220° Southwest 279 321 10,200  Level Boston Center
Wed 05:30:00 PM 44.4002 -69.3593 226° Southwest  Level FlightAware Approximate
Wed 05:30:46 PM 44.6267 -69.2108 222° Southwest 291 335 12,300  Level Boston Center
Wed 05:31:00 PM 44.3313 -69.4476 221° Southwest  Level FlightAware Approximate
Wed 05:31:47 PM 44.5511 -69.2675 208° Southwest 302 348 14,400  Level Boston Center
Wed 05:32:00 PM 44.2612 -69.5340 221° Southwest  Level FlightAware Approximate
Wed 05:32:47 PM 44.4689 -69.3128 201° Southwest 308 354 16,300  Level Boston Center
Wed 05:33:47 PM 44.3958 -69.3833 215° Southwest 318 366 17,600 1,193 Climbing Boston Center
Wed 05:35:48 PM 44.2431 -69.5247 214° Southwest 342 394 19,900 1,207 Climbing Boston Center
Wed 05:36:46 PM 44.1636 -69.5981 214° Southwest 347 399 21,200 1,210 Climbing Boston Center
Wed 05:37:47 PM 44.0986 -69.6589 214° Southwest 347 399 22,300 1,220 Climbing Boston Center
Wed 05:38:49 PM 44.0006 -69.7500 214° Southwest 347 399 23,700 1,210 Climbing Boston Center
Wed 05:39:46 PM 43.9169 -69.8231 212° Southwest 352 405 24,700 966 Climbing Boston Center
Wed 05:40:47 PM 43.8331 -69.8986 213° Southwest 357 411 25,600 885 Climbing Boston Center
Wed 05:41:48 PM 43.7472 -69.9797 214° Southwest 369 425 26,500 722 Climbing Boston Center
Wed 05:43:00 PM 43.6614 -70.0550 212° Southwest 369 425 27,200 636 Climbing Boston Center
Wed 05:44:00 PM 43.5592 -70.1481 213° Southwest 369 425 27,900 712 Climbing Boston Center
Wed 05:44:58 PM 43.4689 -70.2314 214° Southwest 374 430 28,600 712 Climbing Boston Center
Wed 05:45:58 PM 43.3808 -70.3089 213° Southwest 374 430 29,300 694 Climbing Boston Center
Wed 05:46:59 PM 43.2928 -70.3892 214° Southwest 379 436 30,000 341 Climbing Boston Center
Wed 05:48:01 PM 43.2044 -70.4689 213° Southwest 385 443 30,000  Level Boston Center
Wed 05:48:58 PM 43.1142 -70.5517 214° Southwest 385 443 30,000  Level Boston Center
Wed 05:49:58 PM 43.0258 -70.6281 212° Southwest 385 443 30,000  Level Boston Center
Wed 05:50:59 PM 42.9353 -70.7072 213° Southwest 385 443 30,000  Level Boston Center
Wed 05:51:59 PM 42.8653 -70.7689 213° Southwest 385 443 30,000  Level Boston Center
Wed 05:53:12 PM 42.7606 -70.8650 214° Southwest 385 443 30,000  Level Boston Center
Wed 05:54:12 PM 42.6703 -70.9744 222° Southwest 385 443 30,000  Level Boston Center
Wed 05:55:12 PM 42.6133 -71.0889 236° Southwest 369 425 30,000  Level Boston Center
Wed 05:56:10 PM 42.5542 -71.2028 235° Southwest 376 433 30,000  Level Boston Center
Wed 05:57:22 PM 42.4928 -71.3194 235° Southwest 376 433 30,000  Level Boston Center
Wed 05:58:23 PM 42.4356 -71.4358 236° Southwest 381 438 30,000  Level Boston Center
Wed 05:59:22 PM 42.3617 -71.5692 233° Southwest 376 433 30,000  Level Boston Center
Wed 06:00:23 PM 42.3019 -71.6794 234° Southwest 376 433 30,000  Level Boston Center
Wed 06:01:23 PM 42.2547 -71.7697 235° Southwest 376 433 30,000  Level Boston Center
Wed 06:02:24 PM 42.1844 -71.9050 235° Southwest 376 433 30,000  Level Boston Center
Wed 06:03:22 PM 42.1244 -72.0175 234° Southwest 376 433 30,000  Level Boston Center
Wed 06:04:23 PM 42.0664 -72.1297 235° Southwest 376 433 30,000  Level Boston Center
Wed 06:05:23 PM 42.0064 -72.2417 234° Southwest 376 433 30,000  Level Boston Center
Wed 06:06:35 PM 41.9461 -72.3536 234° Southwest 376 433 30,000  Level Boston Center
Wed 06:07:36 PM 41.8772 -72.4875 235° Southwest 376 433 30,000  Level Boston Center
Wed 06:08:34 PM 41.8147 -72.5989 233° Southwest 376 433 30,000  Level Boston Center
Wed 06:09:34 PM 41.7561 -72.7072 234° Southwest 376 433 30,000  Level Boston Center
Wed 06:10:35 PM 41.6975 -72.8181 235° Southwest 376 433 30,000  Level Boston Center
Wed 06:11:36 PM 41.6386 -72.9317 235° Southwest 376 433 30,000  Level Boston Center
Wed 06:12:34 PM 41.5778 -73.0394 233° Southwest 376 433 30,000  Level Boston Center
Wed 06:13:35 PM 41.5228 -73.1444 235° Southwest 371 427 30,000  Level Boston Center
Wed 06:14:35 PM 41.4617 -73.2544 233° Southwest 364 419 30,000  Level Boston Center
Wed 06:16:54 PM 41.3169 -73.5197 234° Southwest 373 429 30,000  Level New York Center
Wed 06:17:55 PM 41.2561 -73.6275 233° Southwest 378 435 30,000  Level New York Center
Wed 06:18:55 PM 41.1997 -73.7244 232° Southwest 378 435 30,000  Level New York Center
Wed 06:19:54 PM 41.1367 -73.8292 231° Southwest 378 435 30,000 -50 Level New York Center
Wed 06:20:54 PM 41.0733 -73.9392 233° Southwest 378 435 29,900 -298 Descending New York Center
Wed 06:21:55 PM 41.0078 -74.0461 231° Southwest 378 435 29,400 -496 Descending New York Center
Wed 06:22:55 PM 40.9381 -74.1606 231° Southwest 383 441 28,900 -545 Descending New York Center
Wed 06:23:56 PM 40.8572 -74.2828 229° Southwest 396 456 28,300 -496 Descending New York Center
Wed 06:24:56 PM 40.7892 -74.4000 233° Southwest 403 464 27,900 -149 Descending New York Center
Wed 06:25:57 PM 40.7189 -74.5139 231° Southwest 408 470 28,000  Climbing New York Center
Wed 06:26:54 PM 40.6506 -74.6278 232° Southwest 408 470 27,900 -1,077 Descending New York Center
Wed 06:27:54 PM 40.5864 -74.7417 233° Southwest 403 464 25,900 -1,869 Descending New York Center
Wed 06:28:56 PM 40.5164 -74.8386 226° Southwest 392 451 24,100 -1,770 Descending New York Center
Wed 06:29:56 PM 40.4508 -74.9303 227° Southwest 369 425 22,300 -1,815 Descending New York Center
Wed 06:30:55 PM 40.3850 -75.0244 227° Southwest 357 411 20,500 -1,815 Descending New York Center
Wed 06:31:55 PM 40.3103 -75.1258 226° Southwest 377 434 18,700 -1,240 Descending New York Center
Wed 06:32:56 PM 40.2422 -75.2222 227° Southwest 384 442 18,000 -347 Descending New York Center
Wed 06:33:56 PM 40.1717 -75.3183 226° Southwest 379 436 18,000  Level New York Center
Wed 06:34:56 PM 40.1078 -75.4064 227° Southwest 374 430 18,000  Level New York Center
Wed 06:35:57 PM 40.0306 -75.5150 227° Southwest 381 438 18,000  Level New York Center
Wed 06:36:54 PM 39.9644 -75.6053 226° Southwest 381 438 18,000 -458 Level New York Center
Wed 06:37:55 PM 39.8883 -75.7272 231° Southwest 392 451 17,100 -492 Descending New York Center
Wed 06:38:56 PM 39.8342 -75.8261 235° Southwest 391 450 17,000 -101 Descending New York Center
Wed 06:39:54 PM 39.7650 -75.9347 230° Southwest 380 437 16,900 -763 Descending New York Center
Wed 06:40:54 PM 39.7022 -76.0300 229° Southwest 375 432 15,500 -1,587 Descending New York Center
Wed 06:41:55 PM 39.6306 -76.1406 230° Southwest 368 423 13,700 -1,627 Descending New York Center
Wed 06:42:52 PM 39.5667 -76.2333 228° Southwest 340 391 12,300 -864 Descending Potomac TRACON
Wed 06:43:53 PM 39.5167 -76.3167 232° Southwest 329 379 12,000 -149 Descending Potomac TRACON
Wed 06:44:53 PM 39.4500 -76.4167 229° Southwest 333 383 12,000 -105 Level Potomac TRACON
Wed 06:45:47 PM 39.3833 -76.4833 218° Southwest 323 372 11,800 -939 Descending Potomac TRACON
Wed 06:46:48 PM 39.3167 -76.5333 210° Southwest 306 352 10,200 -893 Descending Potomac TRACON
Wed 06:47:48 PM 39.2500 -76.6000 218° Southwest 287 330 10,000 -100 Descending Potomac TRACON
Wed 06:48:48 PM 39.1833 -76.6500 210° Southwest 276 318 10,000  Level Potomac TRACON
Wed 06:49:55 PM 39.1500 -76.7500 247° West 278 320 10,000 -238 Level Potomac TRACON
Wed 06:50:54 PM 39.1167 -76.8500 247° West 277 319 9,500 -1,316 Descending Potomac TRACON
Wed 06:51:49 PM 39.1000 -76.9333 256° West 281 323 7,500 -1,388 Descending Potomac TRACON
Wed 06:52:55 PM 39.0833 -77.0167 256° West 243 280 6,700 -850 Descending Potomac TRACON
Wed 06:53:49 PM 39.0667 -77.0833 252° West 201 231 5,800 -1,368 Descending Potomac TRACON
Wed 06:54:49 PM 39.0667 -77.1667 270° West 199 229 4,100 -1,400 Descending Potomac TRACON
Wed 06:55:49 PM 39.0500 -77.2167 247° West 169 194 3,000 -550 Descending Potomac TRACON
Wed 06:56:49 PM 39.0167 -77.2000 159° South 170 196 3,000  Level Potomac TRACON
Wed 06:57:50 PM 38.9667 -77.1500 142° Southeast 177 204 3,000 -470 Level Potomac TRACON
Wed 06:58:44 PM 38.9333 -77.1167 142° Southeast 171 197 2,100 -950 Descending Potomac TRACON
Wed 06:59:50 PM 38.9000 -77.0833 142° Southeast 161 185 1,100 -756 Descending Potomac TRACON
Wed 07:00:51 PM 38.8833 -77.0500 123° Southeast 134 154 500 -590 Descending Potomac TRACON
Wed 07:02:00 PM 38.8519 -77.0377 142° Southeast  Level Estimated
Wed 07:09:00 PM 38.8519 -77.0377 339° North  Level Estimated
Wed 07:10:00 PM 38.8519 -77.0377 North  Level Estimated
Wed 07:11:00 PM 38.8519 -77.0377 343° North  Level Estimated

Login

Don't have an account? Register now (free) for customized features, flight alerts, and more!